Ketron Island, Washington
Current Conditions -  °F | °C
As of 1:58 AM on Monday 20 Oct 2014 (Local Time) from KTCM Reporting Station
Light Rain Light Rain  
Wind Chill: 58°   Ceiling: 7000
Heat Index: 58°   Visibility: 7mi
Dew Point: 58°   Wind: 0mph
Humidity: 99%   Direction: NA
Pressure: 29.72"   Gusts: NA
Location:  47.1696°N, 122.593°W
Report Text: KTCM 200858Z AUTO 00000KT 7SM -RA OVC070 14/14 A2972 RMK AO2 RAB0812E0813B0829DZB0813E0822 SLP067 P0001 60001 T01440143 50005
Loading
Personal Weather Stations






























Interactive Weather Map
Tropical Storm Tracking
New forecast layout! Learn more

10-Day Weather Forecast

Advertisements
Track Severe Weather on mobile